Time;durP1;ratioP1;P1;durP2;ratioP2;P2;SDS_P1;SDS_P2;PMS_P1;PMS_P2;Temp;Humidity;BMP_temperature;BMP_pressure;BME280_temperature;BME280_humidity;BME280_pressure;Samples;Min_cycle;Max_cycle;Signal;HPM_P1;HPM_P2
2021/03/18 00:00:39;;;;;;;10.43;6.00;;;22.80;29.90;;;;;;6247855;28;80765;-68
2021/03/18 00:03:39;;;;;;;9.75;5.55;;;22.80;29.60;;;;;;6234073;28;81772;-67
2021/03/18 00:06:40;;;;;;;8.50;5.28;;;22.80;29.60;;;;;;6241582;28;90749;-67
2021/03/18 00:09:40;;;;;;;10.48;5.10;;;22.80;29.50;;;;;;6240467;28;80839;-67
2021/03/18 00:12:41;;;;;;;8.25;5.30;;;22.80;29.80;;;;;;6241995;28;80875;-67
2021/03/18 00:15:41;;;;;;;9.75;5.28;;;22.80;30.40;;;;;;6227271;28;81890;-67
2021/03/18 00:18:42;;;;;;;10.27;5.40;;;22.80;29.90;;;;;;6238153;28;80627;-67
2021/03/18 00:21:43;;;;;;;9.40;5.80;;;22.80;30.00;;;;;;6228396;28;83478;-68
2021/03/18 00:24:43;;;;;;;8.88;5.07;;;22.80;29.70;;;;;;6235132;28;83243;-68
2021/03/18 00:27:44;;;;;;;9.02;4.80;;;22.70;29.80;;;;;;6252767;28;80733;-69
2021/03/18 00:30:44;;;;;;;9.88;5.13;;;22.80;29.70;;;;;;6244620;28;81199;-68
2021/03/18 00:33:45;;;;;;;10.02;5.43;;;22.70;29.70;;;;;;6241449;28;84222;-68
2021/03/18 00:36:45;;;;;;;11.82;5.50;;;22.70;29.90;;;;;;6243198;28;80693;-68
2021/03/18 00:39:46;;;;;;;8.75;5.30;;;22.70;29.70;;;;;;6237668;27;80665;-68
2021/03/18 00:42:46;;;;;;;10.13;5.43;;;22.70;29.80;;;;;;6247854;27;80488;-68
2021/03/18 00:45:47;;;;;;;8.85;5.38;;;22.70;29.60;;;;;;6249559;28;80815;-68
2021/03/18 00:48:48;;;;;;;9.40;5.20;;;22.70;30.00;;;;;;6242500;28;81089;-67
2021/03/18 00:51:48;;;;;;;7.15;4.85;;;22.70;29.80;;;;;;6223455;28;83556;-68
2021/03/18 00:54:49;;;;;;;8.93;4.72;;;22.70;29.90;;;;;;6234829;28;82215;-68
2021/03/18 00:57:50;;;;;;;9.63;5.30;;;22.70;29.70;;;;;;6233789;28;83353;-69
2021/03/18 01:00:51;;;;;;;8.98;5.38;;;22.70;29.90;;;;;;6251268;28;80864;-68
2021/03/18 01:03:52;;;;;;;9.45;5.10;;;22.70;29.90;;;;;;6250500;27;83499;-69
2021/03/18 01:06:53;;;;;;;10.50;5.40;;;22.70;30.00;;;;;;6232026;27;83209;-69
2021/03/18 01:09:54;;;;;;;7.78;4.72;;;22.70;29.80;;;;;;6240621;28;80610;-68
2021/03/18 01:12:55;;;;;;;10.57;5.07;;;22.60;29.50;;;;;;6236944;27;84058;-67
2021/03/18 01:15:55;;;;;;;9.23;4.88;;;22.60;29.40;;;;;;6238556;28;84268;-68
2021/03/18 01:18:56;;;;;;;9.02;4.90;;;22.60;29.40;;;;;;6241594;28;84864;-68
2021/03/18 01:21:56;;;;;;;8.73;4.95;;;22.70;29.60;;;;;;6228103;28;81451;-68
2021/03/18 01:24:57;;;;;;;7.63;4.80;;;22.60;29.50;;;;;;6235515;27;83767;-68
2021/03/18 01:27:58;;;;;;;9.50;4.93;;;22.60;29.80;;;;;;6245956;28;81538;-65
2021/03/18 01:30:58;;;;;;;8.18;4.93;;;22.60;29.70;;;;;;6238837;28;81427;-65
2021/03/18 01:33:59;;;;;;;9.60;5.13;;;22.60;29.80;;;;;;6243802;28;81752;-67
2021/03/18 01:37:00;;;;;;;9.90;4.68;;;22.60;29.70;;;;;;6235940;28;80528;-67
2021/03/18 01:40:00;;;;;;;7.70;4.30;;;22.60;29.70;;;;;;6253531;28;80405;-68
2021/03/18 01:43:01;;;;;;;8.75;5.20;;;22.60;29.50;;;;;;6240587;27;80607;-66
2021/03/18 01:46:01;;;;;;;8.25;4.63;;;22.60;29.50;;;;;;6239403;28;80591;-67
2021/03/18 01:49:02;;;;;;;9.15;4.63;;;22.60;29.80;;;;;;6239525;28;80402;-66
2021/03/18 01:52:02;;;;;;;7.40;4.65;;;22.60;29.70;;;;;;6238951;28;80682;-67
2021/03/18 01:55:03;;;;;;;7.70;4.95;;;22.60;29.60;;;;;;6227620;28;82165;-65
2021/03/18 01:58:03;;;;;;;8.05;4.88;;;22.60;29.80;;;;;;6249273;28;80985;-66
2021/03/18 02:01:04;;;;;;;8.02;4.00;;;22.60;29.50;;;;;;6241973;28;80907;-65
2021/03/18 02:04:04;;;;;;;7.40;4.45;;;22.60;29.50;;;;;;6242493;28;82762;-65
2021/03/18 02:07:05;;;;;;;6.63;4.07;;;22.60;29.50;;;;;;6236707;28;80820;-66
2021/03/18 02:10:06;;;;;;;6.78;4.53;;;22.60;29.30;;;;;;6239584;28;81381;-66
2021/03/18 02:13:06;;;;;;;8.45;4.40;;;22.60;29.50;;;;;;6239952;27;80676;-66
2021/03/18 02:16:07;;;;;;;11.02;4.97;;;22.60;29.40;;;;;;6236221;28;81700;-66
2021/03/18 02:19:07;;;;;;;10.05;4.28;;;22.60;29.60;;;;;;6240165;28;80703;-66
2021/03/18 02:22:08;;;;;;;7.63;4.13;;;22.60;29.10;;;;;;6240054;27;81672;-65
2021/03/18 02:25:08;;;;;;;8.35;4.85;;;22.50;29.20;;;;;;6224352;28;81564;-65
2021/03/18 02:28:09;;;;;;;6.93;4.13;;;22.60;29.50;;;;;;6241402;28;87316;-66
2021/03/18 02:31:09;;;;;;;7.15;3.95;;;22.60;29.10;;;;;;6243851;28;80507;-66
2021/03/18 02:34:10;;;;;;;8.32;4.25;;;22.60;29.10;;;;;;6250278;28;80427;-65
2021/03/18 02:37:12;;;;;;;6.70;4.32;;;22.50;29.00;;;;;;6250279;28;80284;-65
2021/03/18 02:40:13;;;;;;;7.03;4.68;;;22.60;29.10;;;;;;6236158;27;82527;-65
2021/03/18 02:43:13;;;;;;;6.22;3.97;;;22.50;29.20;;;;;;6242033;28;81627;-65
2021/03/18 02:46:14;;;;;;;6.25;3.88;;;22.50;29.60;;;;;;6242153;28;80838;-65
2021/03/18 02:49:15;;;;;;;7.53;4.00;;;22.50;29.30;;;;;;6245690;28;80499;-65
2021/03/18 02:52:15;;;;;;;6.75;4.18;;;22.50;29.50;;;;;;6243170;28;83581;-64
2021/03/18 02:55:16;;;;;;;8.38;4.53;;;22.50;29.70;;;;;;6229422;28;81070;-64
2021/03/18 02:58:16;;;;;;;6.20;4.13;;;22.50;29.60;;;;;;6249124;28;80463;-66
2021/03/18 03:01:17;;;;;;;6.82;4.22;;;22.50;30.00;;;;;;6219974;28;81706;-66
2021/03/18 03:04:17;;;;;;;7.50;3.90;;;22.50;29.70;;;;;;6230427;28;81615;-66
2021/03/18 03:07:18;;;;;;;8.40;4.22;;;22.50;29.80;;;;;;6238160;28;91871;-66
2021/03/18 03:10:18;;;;;;;7.65;4.40;;;22.50;29.80;;;;;;6243896;27;81575;-65
2021/03/18 03:13:19;;;;;;;6.28;3.92;;;22.50;29.80;;;;;;6234038;28;81015;-66
2021/03/18 03:16:19;;;;;;;6.57;3.90;;;22.50;29.90;;;;;;6245468;28;81087;-66
2021/03/18 03:19:20;;;;;;;6.00;3.80;;;22.50;30.00;;;;;;6247164;28;81826;-66
2021/03/18 03:22:20;;;;;;;9.02;4.68;;;22.50;29.90;;;;;;6250574;28;81173;-66
2021/03/18 03:25:21;;;;;;;6.38;3.92;;;22.60;30.00;;;;;;6247585;28;81078;-65
2021/03/18 03:28:21;;;;;;;7.32;4.40;;;22.60;29.90;;;;;;6246426;28;80876;-65
2021/03/18 03:31:22;;;;;;;6.28;3.80;;;22.60;30.00;;;;;;6239401;28;80747;-65
2021/03/18 03:34:23;;;;;;;8.18;4.50;;;22.60;30.00;;;;;;6237471;28;81099;-66
2021/03/18 03:37:23;;;;;;;6.53;3.78;;;22.60;30.00;;;;;;6237897;28;80800;-66
2021/03/18 03:40:24;;;;;;;7.03;4.43;;;22.60;30.00;;;;;;6244288;27;80614;-66
2021/03/18 03:43:24;;;;;;;7.13;4.32;;;22.60;30.00;;;;;;6245145;28;80712;-65
2021/03/18 03:46:25;;;;;;;7.28;4.35;;;22.50;30.00;;;;;;6242582;28;80824;-65
2021/03/18 03:49:25;;;;;;;9.55;5.35;;;22.50;30.00;;;;;;6223526;28;81060;-65
2021/03/18 03:52:26;;;;;;;7.90;4.50;;;22.50;30.00;;;;;;6238954;28;81366;-66
2021/03/18 03:55:26;;;;;;;7.38;4.82;;;22.50;30.00;;;;;;6234217;28;83714;-65
2021/03/18 03:58:27;;;;;;;6.82;4.55;;;22.50;30.00;;;;;;6241760;28;80743;-65
2021/03/18 04:01:28;;;;;;;7.95;5.03;;;22.50;29.90;;;;;;6226389;28;80370;-65
2021/03/18 04:04:28;;;;;;;7.72;4.95;;;22.50;29.90;;;;;;6240312;28;80885;-65
2021/03/18 04:07:29;;;;;;;8.77;5.03;;;22.60;29.90;;;;;;6230497;28;85568;-65
2021/03/18 04:10:29;;;;;;;8.27;4.70;;;22.60;29.90;;;;;;6209339;27;80153;-65
2021/03/18 04:13:30;;;;;;;6.95;4.60;;;22.50;30.00;;;;;;6247433;28;80850;-65
2021/03/18 04:16:31;;;;;;;8.90;5.07;;;22.50;30.00;;;;;;6240717;28;80550;-66
2021/03/18 04:19:31;;;;;;;9.23;4.85;;;22.50;30.00;;;;;;6210859;28;82088;-66
2021/03/18 04:22:32;;;;;;;8.10;4.75;;;22.60;30.30;;;;;;6235241;28;80873;-66
2021/03/18 04:25:32;;;;;;;6.97;5.15;;;22.60;29.90;;;;;;6245962;28;81541;-66
2021/03/18 04:28:33;;;;;;;10.48;5.78;;;22.60;29.60;;;;;;6228833;28;82160;-67
2021/03/18 04:31:33;;;;;;;7.45;4.88;;;22.60;29.40;;;;;;6221426;28;81258;-67
2021/03/18 04:34:34;;;;;;;7.53;5.03;;;22.60;29.40;;;;;;6239553;28;80977;-66
2021/03/18 04:37:34;;;;;;;7.03;5.13;;;22.60;29.40;;;;;;6239536;27;80786;-68
2021/03/18 04:40:35;;;;;;;9.88;5.40;;;22.70;29.40;;;;;;6239691;28;80672;-67
2021/03/18 04:43:35;;;;;;;7.80;4.65;;;22.70;29.40;;;;;;6242979;28;81228;-66
2021/03/18 04:46:36;;;;;;;9.55;4.95;;;22.70;29.40;;;;;;6243907;28;81648;-66
2021/03/18 04:49:36;;;;;;;8.57;4.88;;;22.70;29.60;;;;;;6241896;27;80346;-66
2021/03/18 04:52:37;;;;;;;10.57;5.72;;;22.80;29.70;;;;;;6241391;28;80653;-67
2021/03/18 04:55:37;;;;;;;7.35;5.32;;;22.80;29.70;;;;;;6226944;28;80723;-68
2021/03/18 04:58:38;;;;;;;9.45;5.32;;;22.80;29.60;;;;;;6241834;27;81961;-67
2021/03/18 05:01:38;;;;;;;7.63;5.18;;;22.80;29.60;;;;;;6252404;28;80517;-68
2021/03/18 05:04:39;;;;;;;10.32;5.05;;;22.80;29.60;;;;;;6236659;28;80348;-68
2021/03/18 05:07:39;;;;;;;11.32;5.85;;;22.80;29.50;;;;;;6248537;28;81040;-67
2021/03/18 05:10:40;;;;;;;8.00;5.20;;;22.80;29.40;;;;;;6251070;28;80543;-67
2021/03/18 05:13:41;;;;;;;7.95;5.45;;;22.90;29.30;;;;;;6246339;27;83248;-67
2021/03/18 05:16:41;;;;;;;9.27;5.05;;;22.90;29.20;;;;;;6232946;28;81363;-67
2021/03/18 05:19:42;;;;;;;6.90;5.07;;;22.90;29.00;;;;;;6240382;28;81171;-69
2021/03/18 05:22:42;;;;;;;8.10;5.22;;;22.90;29.10;;;;;;6220544;28;80816;-67
2021/03/18 05:25:43;;;;;;;9.57;5.25;;;22.90;29.10;;;;;;6223109;28;81633;-68
2021/03/18 05:28:43;;;;;;;8.02;5.18;;;23.00;29.30;;;;;;6226195;28;82397;-69
2021/03/18 05:31:44;;;;;;;8.60;5.10;;;22.90;29.30;;;;;;6246416;28;81680;-69
2021/03/18 05:34:44;;;;;;;9.07;5.38;;;22.90;29.90;;;;;;6233506;28;81513;-67
2021/03/18 05:37:45;;;;;;;12.63;5.28;;;22.90;30.10;;;;;;6250971;28;80623;-67
2021/03/18 05:40:46;;;;;;;8.50;5.53;;;22.90;30.00;;;;;;6244734;28;80969;-65
2021/03/18 05:43:46;;;;;;;9.30;5.15;;;23.00;29.90;;;;;;6235791;28;81843;-68
2021/03/18 05:46:47;;;;;;;11.60;5.35;;;23.00;29.70;;;;;;6235807;28;80846;-69
2021/03/18 05:49:47;;;;;;;10.38;4.88;;;23.00;30.00;;;;;;6248018;27;81604;-68
2021/03/18 05:52:48;;;;;;;5.97;4.57;;;23.00;30.20;;;;;;6241620;28;81006;-68
2021/03/18 05:55:48;;;;;;;9.45;5.38;;;23.00;30.50;;;;;;6236850;28;81638;-68
2021/03/18 05:58:49;;;;;;;8.82;5.32;;;23.00;30.40;;;;;;6238301;27;81118;-69
2021/03/18 06:01:49;;;;;;;9.82;5.82;;;23.00;30.70;;;;;;6240608;28;82014;-67
2021/03/18 06:04:50;;;;;;;9.18;5.68;;;23.00;31.10;;;;;;6240725;28;80418;-68
2021/03/18 06:07:50;;;;;;;8.52;5.07;;;23.00;31.60;;;;;;6236932;28;80805;-69
2021/03/18 06:10:51;;;;;;;9.52;5.40;;;23.00;31.60;;;;;;6242085;28;80876;-69
2021/03/18 06:13:51;;;;;;;6.80;4.47;;;23.10;32.00;;;;;;6236696;28;80844;-69
2021/03/18 06:16:52;;;;;;;7.28;4.75;;;23.10;32.30;;;;;;6239179;28;80734;-69
2021/03/18 06:19:53;;;;;;;10.48;5.10;;;23.10;32.20;;;;;;6234684;28;80931;-67
2021/03/18 06:22:53;;;;;;;8.50;5.05;;;23.10;32.40;;;;;;6241854;28;81275;-68
2021/03/18 06:25:54;;;;;;;9.63;5.70;;;23.00;32.50;;;;;;6236780;28;81405;-66
2021/03/18 06:28:54;;;;;;;6.70;4.35;;;23.10;32.70;;;;;;6238242;28;80687;-68
2021/03/18 06:31:55;;;;;;;9.38;4.80;;;23.10;32.70;;;;;;6246469;28;81653;-67
2021/03/18 06:34:55;;;;;;;8.38;5.20;;;23.10;32.50;;;;;;6245803;27;80703;-67
2021/03/18 06:37:56;;;;;;;8.63;4.50;;;23.10;31.90;;;;;;6236679;28;81289;-67
2021/03/18 06:40:56;;;;;;;13.07;4.88;;;23.20;32.60;;;;;;6246641;28;83157;-65
2021/03/18 06:43:57;;;;;;;7.65;4.70;;;23.10;32.30;;;;;;6240552;28;80429;-65
2021/03/18 06:46:58;;;;;;;8.10;4.05;;;23.10;32.10;;;;;;6244661;28;80556;-71
2021/03/18 06:49:58;;;;;;;10.35;4.57;;;23.20;33.00;;;;;;6239201;28;80711;-67
2021/03/18 06:52:59;;;;;;;9.70;4.90;;;23.10;32.40;;;;;;6239562;28;80947;-69
2021/03/18 06:55:59;;;;;;;17.35;5.00;;;23.10;32.20;;;;;;6237391;28;80755;-68
2021/03/18 06:59:00;;;;;;;17.13;4.68;;;23.10;32.30;;;;;;6246088;28;82185;-67
2021/03/18 07:02:00;;;;;;;12.45;4.65;;;23.20;32.90;;;;;;6238888;28;80582;-69
2021/03/18 07:05:01;;;;;;;9.13;4.70;;;23.10;31.30;;;;;;6243529;28;80551;-70
2021/03/18 07:08:02;;;;;;;7.55;4.28;;;23.10;31.10;;;;;;6217255;28;81401;-71
2021/03/18 07:11:02;;;;;;;7.90;4.28;;;23.10;30.40;;;;;;6238997;28;80534;-72
2021/03/18 07:14:03;;;;;;;7.95;4.38;;;23.00;30.20;;;;;;6225480;28;83617;-69
2021/03/18 07:17:03;;;;;;;9.60;4.55;;;23.00;30.30;;;;;;6235264;28;80841;-68
2021/03/18 07:20:04;;;;;;;7.60;4.80;;;22.90;29.90;;;;;;6237691;28;80722;-65
2021/03/18 07:23:04;;;;;;;8.40;4.57;;;22.90;29.70;;;;;;6232502;28;81439;-69
2021/03/18 07:26:05;;;;;;;8.55;4.65;;;22.90;29.60;;;;;;6235371;28;81567;-68
2021/03/18 07:29:05;;;;;;;8.00;4.78;;;22.80;28.90;;;;;;6244787;28;81614;-68
2021/03/18 07:32:06;;;;;;;8.68;4.88;;;22.70;28.90;;;;;;6199059;28;80882;-70
2021/03/18 07:35:06;;;;;;;10.18;4.85;;;22.70;28.80;;;;;;6244101;28;80561;-69
2021/03/18 07:38:07;;;;;;;8.65;4.55;;;22.60;28.40;;;;;;6238743;28;80634;-68
2021/03/18 07:41:07;;;;;;;8.90;4.25;;;22.60;28.40;;;;;;6235268;28;80145;-70
2021/03/18 07:44:08;;;;;;;10.32;4.30;;;22.50;28.60;;;;;;6237697;28;80831;-69
2021/03/18 07:47:08;;;;;;;9.82;4.40;;;22.50;28.50;;;;;;6232295;28;80940;-68
2021/03/18 07:50:09;;;;;;;8.07;4.40;;;22.50;28.50;;;;;;6234416;28;80519;-70
2021/03/18 07:53:10;;;;;;;8.10;4.43;;;22.50;28.40;;;;;;6231567;28;80530;-68
2021/03/18 07:56:12;;;;;;;8.52;4.35;;;22.50;28.60;;;;;;6241185;27;88139;-69
2021/03/18 07:59:13;;;;;;;8.40;4.38;;;22.50;28.50;;;;;;6237554;28;81438;-68
2021/03/18 08:02:14;;;;;;;7.10;4.15;;;22.50;28.40;;;;;;6236416;28;80968;-69
2021/03/18 08:05:15;;;;;;;11.20;4.68;;;22.40;28.20;;;;;;6239783;28;80621;-70
2021/03/18 08:08:15;;;;;;;11.77;4.22;;;22.40;28.30;;;;;;6239685;28;81818;-70
2021/03/18 08:11:16;;;;;;;10.30;4.50;;;22.40;28.50;;;;;;6243859;28;81680;-68
2021/03/18 08:14:17;;;;;;;8.70;4.50;;;22.40;29.10;;;;;;6249967;27;80648;-68
2021/03/18 08:17:17;;;;;;;6.60;3.72;;;22.40;29.00;;;;;;6247836;28;81340;-68
2021/03/18 08:20:18;;;;;;;7.18;3.83;;;22.40;28.80;;;;;;6214502;27;81327;-68
2021/03/18 08:23:18;;;;;;;9.35;3.88;;;22.40;28.60;;;;;;6243834;28;80754;-68
2021/03/18 08:26:19;;;;;;;14.07;4.35;;;22.50;28.70;;;;;;6229196;28;83428;-69
2021/03/18 08:29:19;;;;;;;8.10;3.65;;;22.50;28.60;;;;;;6255474;28;80393;-70
2021/03/18 08:32:20;;;;;;;7.43;3.58;;;22.60;28.80;;;;;;6244390;28;80920;-70
2021/03/18 08:35:21;;;;;;;10.30;3.53;;;22.60;28.40;;;;;;6219348;28;81757;-68
2021/03/18 08:38:21;;;;;;;8.88;3.30;;;22.60;28.80;;;;;;6247970;28;80975;-68
2021/03/18 08:41:22;;;;;;;5.25;3.22;;;22.70;28.10;;;;;;6249978;28;87066;-71
2021/03/18 08:44:25;;;;;;;4.38;2.75;;;22.70;27.60;;;;;;6247462;28;80886;-69
2021/03/18 08:47:25;;;;;;;5.63;2.80;;;22.70;27.70;;;;;;6239617;28;80304;-68
2021/03/18 08:50:26;;;;;;;5.82;2.60;;;22.70;27.90;;;;;;6251169;27;81494;-68
2021/03/18 08:53:26;;;;;;;3.88;2.45;;;22.70;27.80;;;;;;6244843;28;80392;-68
2021/03/18 08:56:27;;;;;;;3.78;2.20;;;22.80;27.80;;;;;;6233415;28;81775;-68
2021/03/18 08:59:27;;;;;;;9.13;2.60;;;22.80;27.50;;;;;;6239589;28;82144;-70
2021/03/18 09:02:35;;;;;;;5.82;2.35;;;22.80;27.70;;;;;;6250966;28;81478;-70
2021/03/18 09:05:35;;;;;;;7.22;2.78;;;22.80;27.60;;;;;;6248871;28;80832;-70
2021/03/18 09:08:36;;;;;;;5.80;2.25;;;22.80;27.60;;;;;;6250154;28;80430;-70
2021/03/18 09:11:36;;;;;;;3.60;1.73;;;22.80;27.50;;;;;;6246694;28;81854;-69
2021/03/18 09:14:37;;;;;;;3.42;2.20;;;22.80;27.40;;;;;;6245952;28;83094;-71
2021/03/18 09:17:37;;;;;;;5.05;2.10;;;22.90;27.20;;;;;;6225401;28;80457;-69
2021/03/18 09:20:38;;;;;;;3.67;2.30;;;22.90;26.90;;;;;;6247571;28;80658;-69
2021/03/18 09:23:39;;;;;;;4.00;1.90;;;22.90;26.90;;;;;;6242921;27;80856;-69
2021/03/18 09:26:41;;;;;;;2.50;1.63;;;22.80;27.00;;;;;;6244857;28;80563;-69
2021/03/18 09:29:42;;;;;;;3.80;2.03;;;22.90;26.90;;;;;;6250186;28;80636;-69
2021/03/18 09:32:43;;;;;;;6.13;2.15;;;22.90;26.90;;;;;;6227460;28;80729;-68
2021/03/18 09:35:43;;;;;;;2.33;1.55;;;22.90;26.90;;;;;;6238805;28;80691;-69
2021/03/18 09:38:44;;;;;;;4.05;2.20;;;22.90;27.10;;;;;;6246977;28;80595;-69
2021/03/18 09:41:44;;;;;;;4.40;2.50;;;22.90;27.40;;;;;;6248673;28;80434;-69
2021/03/18 09:44:45;;;;;;;4.20;2.33;;;22.90;27.00;;;;;;6248909;28;80359;-69
2021/03/18 09:47:45;;;;;;;3.80;2.25;;;22.90;27.00;;;;;;6220990;28;80642;-69
2021/03/18 09:50:46;;;;;;;4.15;2.40;;;22.90;26.90;;;;;;6250255;28;80626;-69
2021/03/18 09:53:47;;;;;;;4.45;2.33;;;22.90;27.30;;;;;;6244828;27;81595;-69
2021/03/18 09:56:48;;;;;;;3.35;2.25;;;22.90;27.30;;;;;;6241197;28;80548;-70
2021/03/18 09:59:48;;;;;;;4.47;1.98;;;22.90;27.40;;;;;;6245305;28;80970;-69
2021/03/18 10:02:49;;;;;;;2.55;1.70;;;22.90;27.50;;;;;;6229448;28;81359;-68
2021/03/18 10:05:49;;;;;;;2.28;1.88;;;22.90;27.80;;;;;;6225129;28;80651;-69
2021/03/18 10:08:50;;;;;;;6.10;2.45;;;22.90;27.70;;;;;;6246083;28;80133;-68
2021/03/18 10:11:50;;;;;;;4.03;2.30;;;22.90;28.00;;;;;;6245487;28;81606;-69
2021/03/18 10:14:54;;;;;;;3.05;2.00;;;22.90;28.20;;;;;;6219637;28;80447;-68
2021/03/18 10:17:54;;;;;;;6.53;2.08;;;22.90;28.10;;;;;;6239382;28;80523;-67
2021/03/18 10:20:55;;;;;;;9.60;1.98;;;22.90;28.30;;;;;;6243045;27;80213;-68
2021/03/18 10:23:56;;;;;;;9.90;2.47;;;22.80;27.90;;;;;;6248134;28;80777;-67
2021/03/18 10:26:56;;;;;;;3.63;1.80;;;22.80;26.80;;;;;;6221835;28;83050;-66
2021/03/18 10:29:57;;;;;;;3.10;1.80;;;22.80;26.90;;;;;;6243250;28;81289;-67
2021/03/18 10:32:57;;;;;;;4.18;1.88;;;22.80;26.90;;;;;;6238284;28;80369;-68
2021/03/18 10:35:58;;;;;;;2.83;1.77;;;22.80;26.30;;;;;;6236940;27;80551;-68
2021/03/18 10:38:58;;;;;;;2.50;1.30;;;22.70;24.80;;;;;;6243680;28;81725;-70
2021/03/18 10:41:59;;;;;;;2.55;1.63;;;22.60;25.10;;;;;;6240499;28;81260;-69
2021/03/18 10:44:59;;;;;;;2.60;1.40;;;22.70;24.80;;;;;;6234887;27;82705;-66
2021/03/18 10:48:00;;;;;;;2.22;1.65;;;22.50;24.90;;;;;;6244692;28;80615;-68
2021/03/18 10:51:00;;;;;;;3.00;1.60;;;22.50;25.30;;;;;;6241231;28;80666;-67
2021/03/18 10:54:01;;;;;;;2.63;1.40;;;22.50;25.30;;;;;;6241678;28;81275;-67
2021/03/18 10:57:01;;;;;;;2.78;1.75;;;22.50;25.20;;;;;;6242738;28;80754;-68
2021/03/18 11:00:03;;;;;;;3.50;1.60;;;22.50;25.70;;;;;;6232625;28;80467;-66
2021/03/18 11:03:03;;;;;;;4.35;2.15;;;22.50;25.90;;;;;;6236942;28;80790;-68
2021/03/18 11:06:04;;;;;;;2.85;1.83;;;22.50;25.50;;;;;;6233483;28;81397;-66
2021/03/18 11:09:04;;;;;;;2.85;1.98;;;22.50;26.00;;;;;;6243939;28;81675;-67
2021/03/18 11:12:05;;;;;;;3.17;1.92;;;22.60;25.80;;;;;;6245280;28;80600;-66
2021/03/18 11:15:05;;;;;;;2.25;1.70;;;22.60;26.10;;;;;;6240481;28;81978;-67
2021/03/18 11:18:06;;;;;;;2.35;1.55;;;22.70;26.00;;;;;;6233647;28;80940;-67
2021/03/18 11:21:06;;;;;;;4.15;2.28;;;22.80;26.50;;;;;;6231520;28;81446;-67
2021/03/18 11:24:07;;;;;;;6.38;2.80;;;22.80;26.70;;;;;;6239568;28;81558;-68
2021/03/18 11:27:08;;;;;;;4.47;2.05;;;22.80;26.90;;;;;;6233774;28;80656;-68
2021/03/18 11:30:08;;;;;;;8.20;3.70;;;22.90;27.90;;;;;;6247533;28;80909;-69
2021/03/18 11:33:09;;;;;;;3.85;2.88;;;22.90;27.40;;;;;;6233103;28;80881;-67
2021/03/18 11:36:09;;;;;;;7.63;3.45;;;22.90;26.90;;;;;;6236942;27;80754;-67
2021/03/18 11:39:10;;;;;;;5.72;3.17;;;23.00;26.80;;;;;;6242351;28;80415;-67
2021/03/18 11:42:10;;;;;;;7.32;2.97;;;23.00;27.00;;;;;;6244900;28;80649;-67
2021/03/18 11:45:11;;;;;;;5.68;2.83;;;23.00;27.00;;;;;;6221708;28;82225;-66
2021/03/18 11:48:12;;;;;;;5.35;2.80;;;23.00;28.30;;;;;;6239504;27;80454;-67
2021/03/18 11:51:12;;;;;;;5.00;3.00;;;23.00;27.00;;;;;;6244746;28;80338;-68
2021/03/18 11:54:13;;;;;;;9.10;2.90;;;23.00;27.40;;;;;;6239523;28;81379;-68
2021/03/18 11:57:13;;;;;;;6.97;2.63;;;23.00;26.90;;;;;;6253864;28;83553;-68
2021/03/18 12:00:14;;;;;;;4.32;2.88;;;22.90;26.70;;;;;;6251988;28;80527;-69
2021/03/18 12:03:15;;;;;;;5.22;3.15;;;22.90;26.90;;;;;;6251998;28;80700;-69
2021/03/18 12:06:16;;;;;;;3.90;2.80;;;22.90;26.50;;;;;;6255296;28;80580;-69
2021/03/18 12:09:17;;;;;;;5.97;2.95;;;22.90;26.60;;;;;;6234476;28;81582;-69
2021/03/18 12:12:18;;;;;;;5.63;2.70;;;22.90;26.70;;;;;;6249540;28;81854;-64
2021/03/18 12:15:18;;;;;;;7.57;3.20;;;22.80;26.30;;;;;;6238091;28;81901;-64
2021/03/18 12:18:19;;;;;;;3.80;2.67;;;22.90;26.60;;;;;;6226799;28;81363;-67
2021/03/18 12:21:19;;;;;;;4.30;2.72;;;22.90;26.40;;;;;;6247576;28;80487;-70
2021/03/18 12:24:20;;;;;;;5.07;2.80;;;22.90;26.50;;;;;;6206527;28;80425;-68
2021/03/18 12:27:21;;;;;;;4.68;2.95;;;22.90;26.10;;;;;;6254716;27;81574;-68
2021/03/18 12:30:22;;;;;;;4.50;2.85;;;23.00;26.30;;;;;;6240530;28;81123;-67
2021/03/18 12:33:22;;;;;;;5.93;3.08;;;23.00;26.40;;;;;;6245315;27;80868;-66
2021/03/18 12:36:23;;;;;;;6.40;2.70;;;22.90;26.40;;;;;;6249879;28;81115;-69
2021/03/18 12:39:24;;;;;;;4.78;2.70;;;23.00;26.40;;;;;;6251793;28;80335;-69
2021/03/18 12:42:24;;;;;;;4.53;3.08;;;23.00;26.40;;;;;;6247987;28;80561;-69
2021/03/18 12:45:25;;;;;;;6.35;3.38;;;23.00;26.30;;;;;;6253554;28;81468;-69
2021/03/18 12:48:25;;;;;;;8.27;3.22;;;23.10;26.60;;;;;;6254424;28;80864;-68
2021/03/18 12:51:26;;;;;;;5.40;3.20;;;23.10;26.20;;;;;;6249703;28;80573;-68
2021/03/18 12:54:27;;;;;;;5.45;3.42;;;23.10;26.30;;;;;;6223993;28;81469;-69
2021/03/18 12:57:27;;;;;;;4.25;3.15;;;23.00;26.40;;;;;;6249998;27;81579;-68
2021/03/18 13:00:28;;;;;;;4.75;3.63;;;23.10;26.60;;;;;;6243201;28;82181;-69
2021/03/18 13:03:29;;;;;;;4.93;3.42;;;23.00;26.90;;;;;;6233799;28;81540;-69
2021/03/18 13:06:29;;;;;;;8.85;3.90;;;23.00;26.50;;;;;;6240033;28;81823;-68
2021/03/18 13:09:30;;;;;;;4.95;3.22;;;22.90;26.20;;;;;;6246402;28;80720;-68
2021/03/18 13:12:30;;;;;;;5.25;3.53;;;22.90;26.30;;;;;;6217767;28;80630;-68
2021/03/18 13:15:31;;;;;;;6.15;3.13;;;23.00;26.20;;;;;;6244387;28;80666;-68
2021/03/18 13:18:32;;;;;;;6.20;3.92;;;22.90;26.50;;;;;;6221478;28;80618;-68
2021/03/18 13:21:33;;;;;;;6.53;3.63;;;22.90;26.20;;;;;;6246309;28;81815;-68
2021/03/18 13:24:33;;;;;;;5.05;4.07;;;22.90;26.40;;;;;;6240857;28;80590;-67
2021/03/18 13:27:34;;;;;;;5.68;3.92;;;22.90;26.50;;;;;;6241241;28;80318;-68
2021/03/18 13:30:35;;;;;;;5.05;3.45;;;22.90;26.30;;;;;;6241648;28;81049;-67
2021/03/18 13:33:35;;;;;;;5.05;3.63;;;22.90;26.70;;;;;;6237008;28;82422;-67
2021/03/18 13:36:36;;;;;;;6.47;3.83;;;22.90;26.50;;;;;;6244169;28;81183;-69
2021/03/18 13:39:36;;;;;;;7.15;3.88;;;22.90;26.40;;;;;;6245738;28;80596;-68
2021/03/18 13:42:37;;;;;;;5.30;3.42;;;22.90;26.10;;;;;;6236845;28;80523;-69
2021/03/18 13:45:37;;;;;;;9.55;4.10;;;22.90;26.30;;;;;;6244755;28;80524;-69
2021/03/18 13:48:38;;;;;;;5.13;3.30;;;22.90;26.40;;;;;;6248758;28;80825;-67
2021/03/18 13:51:39;;;;;;;5.88;3.22;;;22.90;26.20;;;;;;6246272;28;80859;-67
2021/03/18 13:54:39;;;;;;;5.15;3.63;;;22.90;26.60;;;;;;6243684;27;80852;-70
2021/03/18 13:57:40;;;;;;;4.95;3.72;;;22.90;27.00;;;;;;6245485;28;80437;-67
2021/03/18 14:00:40;;;;;;;8.13;3.78;;;22.90;26.30;;;;;;6236343;27;80261;-67
2021/03/18 14:03:41;;;;;;;6.10;3.97;;;22.80;26.00;;;;;;6238431;28;82440;-66
2021/03/18 14:06:41;;;;;;;5.43;3.47;;;22.90;26.10;;;;;;6244632;28;80754;-66
2021/03/18 14:09:42;;;;;;;5.10;3.40;;;22.80;25.80;;;;;;6232766;28;80454;-66
2021/03/18 14:12:42;;;;;;;5.55;3.60;;;22.80;26.40;;;;;;6240114;28;80439;-66
2021/03/18 14:15:43;;;;;;;7.90;3.45;;;22.80;26.10;;;;;;6240922;27;80820;-67
2021/03/18 14:18:44;;;;;;;6.72;4.10;;;22.80;26.40;;;;;;6242881;28;80941;-67
2021/03/18 14:21:44;;;;;;;6.60;3.80;;;22.80;26.20;;;;;;6239154;28;80478;-65
2021/03/18 14:24:45;;;;;;;7.00;3.90;;;22.70;26.00;;;;;;6246616;28;80712;-68
2021/03/18 14:27:45;;;;;;;6.45;3.60;;;22.70;26.20;;;;;;6223377;28;81436;-65
2021/03/18 14:30:46;;;;;;;5.72;3.58;;;22.70;26.40;;;;;;6246375;28;81562;-69
2021/03/18 14:33:46;;;;;;;3.92;3.13;;;22.60;26.40;;;;;;6242087;27;81183;-68
2021/03/18 14:36:47;;;;;;;3.53;2.53;;;22.70;26.40;;;;;;6224736;27;83101;-69
2021/03/18 14:39:48;;;;;;;7.32;3.25;;;22.70;26.70;;;;;;6245556;27;80882;-68
2021/03/18 14:42:48;;;;;;;8.80;3.70;;;22.80;28.20;;;;;;6241780;28;80749;-67
2021/03/18 14:45:49;;;;;;;26.25;6.00;;;22.90;28.00;;;;;;6244788;27;80650;-69
2021/03/18 14:48:49;;;;;;;18.13;6.35;;;22.90;29.20;;;;;;6185485;28;83183;-70
2021/03/18 14:51:50;;;;;;;20.35;5.90;;;22.90;29.30;;;;;;6246047;27;82330;-68
2021/03/18 14:54:50;;;;;;;15.32;5.65;;;22.90;28.80;;;;;;6247000;27;80712;-66
2021/03/18 14:57:51;;;;;;;12.73;5.35;;;23.00;28.30;;;;;;6244775;27;81117;-67
2021/03/18 15:00:52;;;;;;;13.80;5.68;;;23.00;29.00;;;;;;6247380;27;81326;-68
2021/03/18 15:03:52;;;;;;;13.30;4.90;;;23.00;28.30;;;;;;6245582;27;81057;-70
2021/03/18 15:06:53;;;;;;;12.65;4.68;;;23.00;28.30;;;;;;6246207;27;87788;-68
2021/03/18 15:09:53;;;;;;;13.63;4.80;;;23.10;28.30;;;;;;6240976;27;80702;-69
2021/03/18 15:12:54;;;;;;;11.77;4.20;;;23.00;28.20;;;;;;6241272;28;81004;-64
2021/03/18 15:15:55;;;;;;;14.30;5.07;;;23.00;28.00;;;;;;6247853;28;80438;-65
2021/03/18 15:18:55;;;;;;;12.70;5.32;;;23.10;28.00;;;;;;6245951;28;81519;-68
2021/03/18 15:21:56;;;;;;;12.27;4.95;;;23.10;27.70;;;;;;6245853;28;83029;-68
2021/03/18 15:24:57;;;;;;;8.05;4.00;;;23.10;27.70;;;;;;6246894;28;80663;-68
2021/03/18 15:27:57;;;;;;;8.65;3.72;;;23.20;27.80;;;;;;6246394;28;83446;-68
2021/03/18 15:30:58;;;;;;;10.45;4.05;;;23.20;27.70;;;;;;6248877;28;80667;-68
2021/03/18 15:33:58;;;;;;;9.15;3.95;;;23.20;27.90;;;;;;6238405;28;80804;-68
2021/03/18 15:36:59;;;;;;;9.93;4.22;;;23.20;27.90;;;;;;6248589;27;80290;-68